Time;durP1;ratioP1;P1;durP2;ratioP2;P2;SDS_P1;SDS_P2;PMS_P1;PMS_P2;Temp;Humidity;BMP_temperature;BMP_pressure;BME280_temperature;BME280_humidity;BME280_pressure;Samples;Min_cycle;Max_cycle;Signal;HPM_P1;HPM_P2
2023/03/25 00:01:51;;;;;;;5.90;1.73;;;7.30;99.90;;;;;;496573;239;27970;-76
2023/03/25 00:03:53;;;;;;;8.43;2.13;;;7.30;99.90;;;;;;496635;239;27885;-76
2023/03/25 00:05:54;;;;;;;2.20;1.53;;;7.30;99.90;;;;;;496425;239;28430;-76
2023/03/25 00:07:56;;;;;;;6.07;1.37;;;7.20;99.90;;;;;;496302;239;27998;-76
2023/03/25 00:09:56;;;;;;;4.00;1.30;;;7.20;99.90;;;;;;496657;239;27991;-76
2023/03/25 00:11:58;;;;;;;3.50;1.63;;;7.30;99.90;;;;;;496583;239;28035;-77
2023/03/25 00:13:59;;;;;;;4.70;1.53;;;7.40;99.90;;;;;;496576;239;27751;-77
2023/03/25 00:16:00;;;;;;;3.70;1.50;;;7.50;99.90;;;;;;496576;239;28258;-76
2023/03/25 00:18:01;;;;;;;1.70;1.20;;;7.60;99.90;;;;;;496578;239;28339;-76
2023/03/25 00:20:09;;;;;;;2.60;1.10;;;7.60;99.90;;;;;;496649;239;28351;-76
2023/03/25 00:22:04;;;;;;;3.23;1.50;;;7.70;99.90;;;;;;496137;239;28533;-77
2023/03/25 00:24:05;;;;;;;2.53;1.53;;;7.70;99.90;;;;;;496629;239;28587;-76
2023/03/25 00:26:06;;;;;;;3.60;1.40;;;7.80;99.90;;;;;;496633;239;27782;-77
2023/03/25 00:28:08;;;;;;;3.80;1.57;;;7.80;99.90;;;;;;496635;239;27858;-76
2023/03/25 00:30:09;;;;;;;6.00;1.50;;;7.80;99.90;;;;;;496636;239;27862;-77
2023/03/25 00:32:10;;;;;;;4.90;1.97;;;7.80;99.90;;;;;;496578;239;27789;-76
2023/03/25 00:34:14;;;;;;;7.10;2.03;;;7.90;99.90;;;;;;496562;239;27619;-76
2023/03/25 00:36:13;;;;;;;6.30;2.30;;;7.90;99.90;;;;;;496532;239;28059;-76
2023/03/25 00:38:14;;;;;;;4.73;1.90;;;7.90;99.90;;;;;;496686;239;28220;-76
2023/03/25 00:40:15;;;;;;;5.07;2.10;;;7.90;99.90;;;;;;496641;239;27588;-76
2023/03/25 00:42:16;;;;;;;5.80;2.03;;;7.90;99.90;;;;;;496464;239;28048;-76
2023/03/25 00:44:18;;;;;;;5.07;1.90;;;7.80;99.90;;;;;;496628;239;27978;-77
2023/03/25 00:46:19;;;;;;;8.20;1.90;;;7.90;99.90;;;;;;496650;239;27974;-76
2023/03/25 00:48:20;;;;;;;6.03;2.47;;;7.90;99.90;;;;;;496619;239;27959;-77
2023/03/25 00:50:21;;;;;;;6.97;2.57;;;7.80;99.90;;;;;;496652;239;27877;-77
2023/03/25 00:52:23;;;;;;;4.50;1.70;;;7.80;99.90;;;;;;496654;239;27968;-77
2023/03/25 00:54:24;;;;;;;5.73;1.80;;;7.70;99.90;;;;;;496628;239;28396;-76
2023/03/25 00:56:25;;;;;;;3.13;1.67;;;7.60;99.90;;;;;;496672;239;28514;-75
2023/03/25 00:58:26;;;;;;;2.37;1.63;;;7.60;99.90;;;;;;496684;239;28113;-77
2023/03/25 01:00:28;;;;;;;1.70;1.60;;;7.60;99.90;;;;;;496650;239;28471;-76
2023/03/25 01:02:29;;;;;;;7.60;1.83;;;7.30;99.90;;;;;;496620;239;28652;-77
2023/03/25 01:04:30;;;;;;;4.90;1.47;;;6.90;99.90;;;;;;496360;239;27988;-76
2023/03/25 01:06:31;;;;;;;1.67;1.10;;;6.80;99.90;;;;;;496598;239;27691;-76
2023/03/25 01:08:32;;;;;;;1.40;0.93;;;6.60;99.90;;;;;;496615;239;28059;-77
2023/03/25 01:10:34;;;;;;;3.17;1.13;;;6.50;99.90;;;;;;496583;239;27819;-76
2023/03/25 01:12:35;;;;;;;5.03;1.20;;;6.40;99.90;;;;;;496551;239;28110;-77
2023/03/25 01:14:36;;;;;;;2.30;1.00;;;6.20;99.90;;;;;;496413;239;28080;-76
2023/03/25 01:16:38;;;;;;;2.35;1.00;;;6.20;99.90;;;;;;496606;239;27900;-76
2023/03/25 01:18:40;;;;;;;1.10;1.00;;;6.10;99.90;;;;;;496611;239;27501;-76
2023/03/25 01:20:40;;;;;;;1.27;0.97;;;6.10;99.90;;;;;;496386;239;27809;-76
2023/03/25 01:22:41;;;;;;;1.87;0.90;;;6.20;99.90;;;;;;496482;239;27974;-76
2023/03/25 01:24:43;;;;;;;1.20;1.10;;;6.10;99.90;;;;;;496325;236;27974;-76
2023/03/25 01:26:44;;;;;;;1.00;0.90;;;6.20;99.90;;;;;;496603;239;27594;-76
2023/03/25 01:28:45;;;;;;;3.53;1.20;;;6.20;99.90;;;;;;496612;239;28462;-77
2023/03/25 01:30:46;;;;;;;1.13;1.03;;;6.30;99.90;;;;;;496576;235;28468;-76
2023/03/25 01:32:47;;;;;;;1.40;0.93;;;6.30;99.90;;;;;;496594;239;28527;-76
2023/03/25 01:34:49;;;;;;;2.00;0.90;;;6.30;99.90;;;;;;496549;235;28433;-76
2023/03/25 01:36:53;;;;;;;2.87;1.00;;;6.40;99.90;;;;;;496575;239;28270;-77
2023/03/25 01:38:51;;;;;;;0.93;0.93;;;6.40;99.90;;;;;;496283;236;27789;-77
2023/03/25 01:40:52;;;;;;;2.07;1.10;;;6.30;99.90;;;;;;496484;239;28038;-76
2023/03/25 01:42:54;;;;;;;3.97;1.17;;;6.40;99.90;;;;;;496519;239;27748;-75
2023/03/25 01:44:56;;;;;;;2.50;1.13;;;6.40;99.90;;;;;;496430;236;28810;-76
2023/03/25 01:46:56;;;;;;;2.30;1.10;;;6.40;99.90;;;;;;496622;239;28125;-77
2023/03/25 01:48:59;;;;;;;1.80;1.00;;;6.40;99.90;;;;;;496843;239;27996;-76
2023/03/25 01:50:59;;;;;;;1.80;1.07;;;6.40;99.90;;;;;;496448;236;27950;-77
2023/03/25 01:53:00;;;;;;;1.47;1.00;;;6.30;99.90;;;;;;496496;239;28082;-76
2023/03/25 01:55:01;;;;;;;1.10;1.00;;;6.30;99.90;;;;;;496368;239;27941;-76
2023/03/25 01:57:02;;;;;;;1.27;1.17;;;6.40;99.90;;;;;;496564;236;28015;-77
2023/03/25 01:59:04;;;;;;;0.90;0.90;;;6.30;99.90;;;;;;496341;237;27500;-76
2023/03/25 02:01:05;;;;;;;0.90;0.90;;;6.40;99.90;;;;;;496371;236;28039;-76
2023/03/25 02:03:10;;;;;;;1.27;1.00;;;6.40;99.90;;;;;;496556;239;28393;-76
2023/03/25 02:05:09;;;;;;;1.30;1.20;;;6.50;99.90;;;;;;496322;239;28126;-76
2023/03/25 02:07:09;;;;;;;2.20;1.20;;;6.50;99.90;;;;;;496483;239;28452;-77
2023/03/25 02:09:10;;;;;;;2.57;1.00;;;6.50;99.90;;;;;;496558;239;29271;-76
2023/03/25 02:11:11;;;;;;;2.57;1.10;;;6.50;99.90;;;;;;495893;239;28285;-76
2023/03/25 02:13:12;;;;;;;0.90;0.90;;;6.50;99.90;;;;;;496613;239;27960;-76
2023/03/25 02:15:14;;;;;;;0.97;0.90;;;6.50;99.90;;;;;;496552;239;28780;-76
2023/03/25 02:17:15;;;;;;;4.53;1.13;;;6.50;99.90;;;;;;496614;239;28060;-76
2023/03/25 02:19:16;;;;;;;6.00;1.13;;;6.50;99.90;;;;;;496643;239;28205;-73
2023/03/25 02:21:17;;;;;;;1.80;1.00;;;6.50;99.90;;;;;;496634;239;27916;-76
2023/03/25 02:23:20;;;;;;;1.20;0.90;;;6.60;99.90;;;;;;496598;239;27875;-76
2023/03/25 02:25:20;;;;;;;3.53;1.30;;;6.60;99.90;;;;;;496471;239;28076;-76
2023/03/25 02:27:32;;;;;;;1.20;1.00;;;6.60;99.90;;;;;;496597;239;27925;-76
2023/03/25 02:29:22;;;;;;;1.33;1.20;;;6.70;99.90;;;;;;495987;239;27951;-77
2023/03/25 02:31:24;;;;;;;1.70;1.07;;;6.60;99.90;;;;;;496603;239;27517;-77
2023/03/25 02:33:25;;;;;;;2.13;1.30;;;6.60;99.90;;;;;;496573;235;27753;-76
2023/03/25 02:35:26;;;;;;;1.00;1.00;;;6.60;99.90;;;;;;496552;239;27798;-75
2023/03/25 02:37:27;;;;;;;2.20;1.13;;;6.60;99.90;;;;;;496620;239;28083;-76
2023/03/25 02:39:29;;;;;;;3.27;1.47;;;6.70;99.90;;;;;;496586;239;27961;-76
2023/03/25 02:41:30;;;;;;;1.27;1.17;;;6.70;99.90;;;;;;496557;239;28416;-77
2023/03/25 02:43:31;;;;;;;1.40;1.30;;;6.60;99.90;;;;;;496609;239;28515;-74
2023/03/25 02:45:32;;;;;;;2.03;1.20;;;6.60;99.90;;;;;;496541;239;28380;-73
2023/03/25 02:47:34;;;;;;;2.03;1.30;;;6.60;99.90;;;;;;496607;239;28309;-74
2023/03/25 02:49:35;;;;;;;2.73;1.40;;;6.70;99.90;;;;;;496616;239;28064;-74
2023/03/25 02:51:36;;;;;;;3.40;1.53;;;6.60;99.90;;;;;;496525;239;27959;-77
2023/03/25 02:53:37;;;;;;;3.80;1.60;;;6.60;99.90;;;;;;496569;239;27715;-76
2023/03/25 02:55:40;;;;;;;3.43;1.50;;;6.50;99.90;;;;;;496549;239;27732;-74
2023/03/25 02:57:40;;;;;;;3.83;1.63;;;6.60;99.90;;;;;;496546;239;28688;-73
2023/03/25 02:59:41;;;;;;;2.22;1.33;;;6.60;99.90;;;;;;496589;239;28005;-74
2023/03/25 03:01:44;;;;;;;3.17;1.63;;;6.50;99.90;;;;;;496565;239;27466;-78
2023/03/25 03:03:44;;;;;;;3.12;1.40;;;6.50;99.90;;;;;;496499;239;28003;-75
2023/03/25 03:05:45;;;;;;;3.10;1.30;;;6.50;99.90;;;;;;496353;239;27489;-73
2023/03/25 03:07:46;;;;;;;3.53;1.40;;;6.50;99.90;;;;;;496580;239;27649;-74
2023/03/25 03:09:47;;;;;;;1.97;1.23;;;6.50;99.90;;;;;;496586;239;27942;-73
2023/03/25 03:11:49;;;;;;;4.47;1.83;;;6.50;99.90;;;;;;496574;239;29072;-76
2023/03/25 03:13:50;;;;;;;3.57;1.63;;;6.50;99.90;;;;;;496381;239;28531;-77
2023/03/25 03:15:51;;;;;;;1.60;1.50;;;6.40;99.90;;;;;;496549;239;28043;-73
2023/03/25 03:17:52;;;;;;;3.27;1.30;;;6.40;99.90;;;;;;496538;239;28480;-74
2023/03/25 03:19:54;;;;;;;4.60;2.00;;;6.40;99.90;;;;;;496586;239;29417;-72
2023/03/25 03:21:55;;;;;;;4.17;1.80;;;6.50;99.90;;;;;;496587;239;27930;-73
2023/03/25 03:23:56;;;;;;;2.20;1.60;;;6.50;99.90;;;;;;496574;239;27710;-72
2023/03/25 03:25:58;;;;;;;2.60;1.40;;;6.50;99.90;;;;;;496527;239;27698;-77
2023/03/25 03:27:59;;;;;;;2.58;1.80;;;6.50;99.90;;;;;;496558;239;27505;-76
2023/03/25 03:30:00;;;;;;;5.33;1.57;;;6.50;99.90;;;;;;496563;239;27465;-76
2023/03/25 03:32:01;;;;;;;5.67;1.93;;;6.50;99.90;;;;;;496575;239;27925;-76
2023/03/25 03:34:02;;;;;;;2.53;1.50;;;6.50;99.90;;;;;;496553;239;27953;-76
2023/03/25 03:36:04;;;;;;;3.13;1.53;;;6.50;99.90;;;;;;496437;237;27950;-76
2023/03/25 03:38:08;;;;;;;4.60;1.70;;;6.60;99.90;;;;;;496547;239;27944;-76
2023/03/25 03:40:06;;;;;;;5.17;1.80;;;6.50;99.90;;;;;;496305;239;27780;-75
2023/03/25 03:42:07;;;;;;;2.87;1.83;;;6.60;99.90;;;;;;496561;239;28339;-76
2023/03/25 03:44:09;;;;;;;3.70;1.80;;;6.60;99.90;;;;;;496592;239;28385;-73
2023/03/25 03:46:10;;;;;;;4.23;1.80;;;6.50;99.90;;;;;;496548;239;28420;-74
2023/03/25 03:48:11;;;;;;;3.03;1.67;;;6.60;99.90;;;;;;496584;239;28614;-73
2023/03/25 03:50:12;;;;;;;5.47;1.90;;;6.60;99.90;;;;;;496566;239;28935;-74
2023/03/25 03:52:15;;;;;;;5.20;2.00;;;6.60;99.90;;;;;;496595;239;27607;-73
2023/03/25 03:54:15;;;;;;;4.30;1.87;;;6.60;99.90;;;;;;496454;239;28196;-74
2023/03/25 03:56:18;;;;;;;2.87;1.50;;;6.60;99.90;;;;;;496589;239;28066;-76
2023/03/25 03:58:21;;;;;;;6.17;1.57;;;6.60;99.90;;;;;;496487;239;28354;-77
2023/03/25 04:00:20;;;;;;;3.20;1.67;;;6.70;99.90;;;;;;496344;239;27988;-76
2023/03/25 04:02:22;;;;;;;4.63;1.70;;;6.70;99.90;;;;;;496553;239;27938;-76
2023/03/25 04:04:22;;;;;;;2.37;1.47;;;6.70;99.90;;;;;;496416;239;27737;-77
2023/03/25 04:06:23;;;;;;;6.57;2.23;;;6.80;99.90;;;;;;496561;239;27836;-76
2023/03/25 04:08:25;;;;;;;3.30;1.67;;;6.80;99.90;;;;;;496579;239;28090;-77
2023/03/25 04:10:28;;;;;;;5.67;2.00;;;6.70;99.90;;;;;;496492;239;27930;-76
2023/03/25 04:12:26;;;;;;;5.27;1.60;;;6.70;99.90;;;;;;496320;239;28213;-76
2023/03/25 04:14:27;;;;;;;5.47;2.23;;;6.70;99.90;;;;;;496496;239;28281;-77
2023/03/25 04:16:31;;;;;;;3.37;1.83;;;6.70;99.90;;;;;;496602;239;28463;-76
2023/03/25 04:18:32;;;;;;;5.00;1.90;;;6.70;99.90;;;;;;496449;239;27962;-76
2023/03/25 04:20:33;;;;;;;3.63;1.60;;;6.70;99.90;;;;;;496454;239;28397;-73
2023/03/25 04:22:32;;;;;;;3.30;1.50;;;6.70;99.90;;;;;;496440;239;28478;-72
2023/03/25 04:24:36;;;;;;;9.70;2.33;;;6.70;99.90;;;;;;496543;239;28547;-74
2023/03/25 04:26:37;;;;;;;7.63;2.13;;;6.70;99.90;;;;;;496447;239;28621;-73
2023/03/25 04:28:36;;;;;;;6.50;2.00;;;6.70;99.90;;;;;;496502;239;28480;-72
2023/03/25 04:30:37;;;;;;;6.23;1.77;;;6.70;99.90;;;;;;496596;239;28069;-76
2023/03/25 04:32:39;;;;;;;4.33;1.87;;;6.70;99.90;;;;;;496596;239;27860;-76
2023/03/25 04:34:40;;;;;;;3.80;1.90;;;6.70;99.90;;;;;;496558;239;28666;-76
2023/03/25 04:36:45;;;;;;;10.57;2.17;;;6.70;99.90;;;;;;496588;235;28039;-76
2023/03/25 04:38:45;;;;;;;7.40;2.13;;;6.60;99.90;;;;;;496389;239;27733;-76
2023/03/25 04:40:47;;;;;;;5.93;1.70;;;6.60;99.90;;;;;;496590;239;27929;-76
2023/03/25 04:42:48;;;;;;;13.93;2.47;;;6.60;99.90;;;;;;496574;239;27821;-77
2023/03/25 04:44:49;;;;;;;2.23;2.03;;;6.60;99.90;;;;;;496522;239;27983;-76
2023/03/25 04:46:50;;;;;;;6.03;2.40;;;6.60;99.90;;;;;;496628;239;27927;-76
2023/03/25 04:48:52;;;;;;;4.50;2.30;;;6.60;99.90;;;;;;496636;239;27968;-77
2023/03/25 04:50:54;;;;;;;6.67;2.40;;;6.60;99.90;;;;;;496612;239;28017;-76
2023/03/25 04:52:56;;;;;;;10.97;2.87;;;6.60;99.90;;;;;;496553;239;28060;-76
2023/03/25 04:54:56;;;;;;;6.13;1.90;;;6.60;99.90;;;;;;496478;239;28043;-76
2023/03/25 04:56:57;;;;;;;7.73;2.37;;;6.60;99.90;;;;;;496624;239;27841;-74
2023/03/25 04:58:58;;;;;;;4.80;2.23;;;6.70;99.90;;;;;;496582;239;27786;-76
2023/03/25 05:01:04;;;;;;;4.30;1.90;;;6.70;99.90;;;;;;496627;239;27867;-73
2023/03/25 05:03:00;;;;;;;7.20;2.10;;;6.70;99.90;;;;;;496311;239;27947;-77
2023/03/25 05:05:03;;;;;;;5.23;1.90;;;6.70;99.90;;;;;;496513;239;28394;-76
2023/03/25 05:07:03;;;;;;;10.50;2.45;;;6.70;99.90;;;;;;496313;239;28447;-76
2023/03/25 05:09:04;;;;;;;8.27;2.17;;;6.60;99.90;;;;;;496646;239;27485;-77
2023/03/25 05:11:05;;;;;;;7.60;1.93;;;6.60;99.90;;;;;;496592;239;28098;-73
2023/03/25 05:13:07;;;;;;;6.00;1.97;;;6.60;99.90;;;;;;496610;239;28156;-76
2023/03/25 05:15:08;;;;;;;7.50;2.50;;;6.70;99.90;;;;;;496341;239;28874;-76
2023/03/25 05:17:09;;;;;;;8.77;2.20;;;6.60;99.90;;;;;;496571;239;28040;-78
2023/03/25 05:19:10;;;;;;;12.10;2.90;;;6.60;99.90;;;;;;496596;239;27984;-77
2023/03/25 05:21:12;;;;;;;13.63;2.00;;;6.50;99.90;;;;;;496529;239;28068;-73
2023/03/25 05:23:16;;;;;;;15.20;2.70;;;6.50;99.90;;;;;;496543;239;28034;-72
2023/03/25 05:25:14;;;;;;;7.10;2.47;;;6.50;99.90;;;;;;496328;239;27614;-73
2023/03/25 05:27:18;;;;;;;11.80;3.30;;;6.60;99.90;;;;;;496605;239;28109;-74
2023/03/25 05:29:18;;;;;;;5.83;1.77;;;6.60;99.90;;;;;;496217;239;27912;-77
2023/03/25 05:31:18;;;;;;;5.60;3.03;;;6.60;99.90;;;;;;496420;239;27859;-76
2023/03/25 05:33:19;;;;;;;8.33;2.20;;;6.60;99.90;;;;;;496606;239;28175;-76
2023/03/25 05:35:20;;;;;;;8.63;2.70;;;6.60;99.90;;;;;;496481;239;28471;-76
2023/03/25 05:37:22;;;;;;;11.30;2.83;;;6.60;99.90;;;;;;496591;239;28456;-76
2023/03/25 05:39:24;;;;;;;8.83;2.20;;;6.60;99.90;;;;;;496589;239;28401;-76
2023/03/25 05:41:31;;;;;;;8.57;2.20;;;6.50;99.90;;;;;;496491;239;28002;-76
2023/03/25 05:43:25;;;;;;;8.27;2.40;;;6.50;99.90;;;;;;496005;239;27716;-76
2023/03/25 05:45:27;;;;;;;11.00;2.87;;;6.60;99.90;;;;;;496525;239;27972;-76
2023/03/25 05:47:28;;;;;;;10.43;2.93;;;6.60;99.90;;;;;;496597;236;27994;-76
2023/03/25 05:49:29;;;;;;;7.70;2.33;;;6.70;99.90;;;;;;496599;239;27828;-76
2023/03/25 05:51:32;;;;;;;7.77;2.40;;;6.70;99.90;;;;;;496573;239;28127;-76
2023/03/25 05:53:32;;;;;;;12.00;2.97;;;6.70;99.90;;;;;;496618;239;27956;-76
2023/03/25 05:55:33;;;;;;;11.10;2.60;;;6.70;99.90;;;;;;496762;239;27839;-77
2023/03/25 05:57:35;;;;;;;6.97;2.27;;;6.80;99.90;;;;;;496905;236;28861;-76
2023/03/25 05:59:39;;;;;;;10.80;2.50;;;6.80;99.90;;;;;;496882;239;27960;-77
2023/03/25 06:01:44;;;;;;;15.03;2.20;;;6.80;99.90;;;;;;496626;239;28303;-76
2023/03/25 06:03:41;;;;;;;15.47;2.70;;;6.80;99.90;;;;;;496392;239;28484;-76
2023/03/25 06:05:42;;;;;;;11.03;2.97;;;6.80;99.90;;;;;;496564;239;27646;-73
2023/03/25 06:07:44;;;;;;;10.40;2.23;;;6.90;99.90;;;;;;496617;239;28501;-74
2023/03/25 06:09:48;;;;;;;15.97;3.20;;;7.00;99.90;;;;;;496585;239;27983;-74
2023/03/25 06:11:52;;;;;;;13.03;3.40;;;6.90;99.90;;;;;;496614;239;27974;-76
2023/03/25 06:13:50;;;;;;;12.20;2.70;;;6.90;99.90;;;;;;496335;239;28107;-76
2023/03/25 06:16:01;;;;;;;15.83;3.20;;;7.00;99.90;;;;;;496582;239;27888;-76
2023/03/25 06:17:53;;;;;;;11.53;2.83;;;6.90;99.90;;;;;;496129;239;27995;-76
2023/03/25 06:19:54;;;;;;;12.50;3.10;;;6.90;99.90;;;;;;496653;236;27939;-77
2023/03/25 06:21:55;;;;;;;16.10;2.80;;;7.00;99.90;;;;;;496645;239;27869;-76
2023/03/25 06:23:57;;;;;;;7.17;2.87;;;7.10;99.90;;;;;;496595;239;27929;-76
2023/03/25 06:25:58;;;;;;;15.07;3.00;;;7.10;99.90;;;;;;496590;239;28457;-77
2023/03/25 06:28:02;;;;;;;7.70;2.77;;;7.10;99.90;;;;;;496640;239;28270;-76
2023/03/25 06:30:00;;;;;;;9.03;2.33;;;7.10;99.90;;;;;;496408;239;28516;-76
2023/03/25 06:32:01;;;;;;;7.97;2.43;;;7.00;99.90;;;;;;496642;239;28479;-77
2023/03/25 06:34:03;;;;;;;12.77;2.50;;;7.00;99.90;;;;;;496598;239;27834;-76
2023/03/25 06:36:04;;;;;;;6.97;2.70;;;7.00;99.90;;;;;;496526;239;27988;-76
2023/03/25 06:38:05;;;;;;;11.73;3.53;;;7.10;99.90;;;;;;496414;239;28081;-76
2023/03/25 06:40:06;;;;;;;10.40;2.50;;;7.10;99.90;;;;;;496644;239;28030;-76
2023/03/25 06:42:08;;;;;;;11.93;2.87;;;7.30;99.90;;;;;;496669;239;27885;-76
2023/03/25 06:44:09;;;;;;;7.97;2.27;;;7.30;99.90;;;;;;496674;239;28071;-77
2023/03/25 06:46:10;;;;;;;7.67;2.43;;;7.30;99.90;;;;;;496611;239;28019;-76
2023/03/25 06:48:11;;;;;;;11.33;2.47;;;7.30;99.90;;;;;;496699;239;27915;-76
2023/03/25 06:50:13;;;;;;;10.17;2.60;;;7.40;99.90;;;;;;496664;235;28041;-76
2023/03/25 06:52:14;;;;;;;9.33;3.00;;;7.40;99.90;;;;;;496702;239;27993;-76
2023/03/25 06:54:17;;;;;;;13.83;2.47;;;7.30;99.90;;;;;;496640;239;27995;-77
2023/03/25 06:56:16;;;;;;;5.90;2.50;;;7.40;99.90;;;;;;496539;239;28173;-76
2023/03/25 06:58:18;;;;;;;11.93;2.73;;;7.40;99.90;;;;;;496667;239;28430;-76
2023/03/25 07:00:22;;;;;;;8.37;2.17;;;7.50;99.90;;;;;;496691;239;28400;-77
2023/03/25 07:02:20;;;;;;;15.60;3.07;;;7.60;99.90;;;;;;496475;239;28874;-77
2023/03/25 07:04:21;;;;;;;8.77;2.30;;;7.60;99.90;;;;;;496558;239;27846;-77
2023/03/25 07:06:23;;;;;;;16.23;2.80;;;7.60;99.90;;;;;;496684;239;27950;-76
2023/03/25 07:08:24;;;;;;;20.23;3.10;;;7.60;99.90;;;;;;496646;239;27905;-76
2023/03/25 07:10:25;;;;;;;10.60;3.43;;;7.70;99.90;;;;;;496662;239;27596;-77
2023/03/25 07:12:26;;;;;;;13.30;2.77;;;7.70;99.90;;;;;;496631;239;27936;-76
2023/03/25 07:14:28;;;;;;;7.70;2.20;;;7.60;99.90;;;;;;496620;239;27952;-76
2023/03/25 07:16:29;;;;;;;8.70;2.53;;;7.60;99.90;;;;;;496686;239;28021;-76
2023/03/25 07:18:30;;;;;;;10.27;2.40;;;7.70;99.90;;;;;;496578;239;28002;-76
2023/03/25 07:20:31;;;;;;;8.87;2.90;;;7.80;99.90;;;;;;496687;239;28118;-77
2023/03/25 07:22:33;;;;;;;8.97;2.80;;;7.90;99.90;;;;;;496531;239;27711;-76
2023/03/25 07:24:34;;;;;;;10.00;2.73;;;7.90;99.90;;;;;;496634;239;27928;-76
2023/03/25 07:26:35;;;;;;;12.23;2.73;;;7.90;99.90;;;;;;496630;239;28428;-76
2023/03/25 07:28:39;;;;;;;7.10;2.90;;;8.00;99.90;;;;;;496640;239;28073;-76
2023/03/25 07:30:41;;;;;;;7.10;2.37;;;8.00;99.90;;;;;;496587;239;28123;-73
2023/03/25 07:32:42;;;;;;;12.30;2.90;;;8.10;99.90;;;;;;496668;239;28167;-77
2023/03/25 07:34:43;;;;;;;9.67;2.90;;;8.20;99.90;;;;;;496549;239;28094;-76
2023/03/25 07:36:44;;;;;;;6.00;2.50;;;8.40;99.90;;;;;;496653;239;28103;-76
2023/03/25 07:38:46;;;;;;;5.50;2.00;;;8.40;99.90;;;;;;496624;237;27940;-76
2023/03/25 07:40:47;;;;;;;6.90;2.40;;;8.30;99.90;;;;;;496663;239;27828;-77
2023/03/25 07:42:48;;;;;;;6.00;2.47;;;8.10;99.90;;;;;;496660;239;27830;-76
2023/03/25 07:44:49;;;;;;;7.10;2.60;;;8.10;99.90;;;;;;496620;237;28053;-76
2023/03/25 07:46:51;;;;;;;6.63;2.43;;;8.30;99.90;;;;;;496674;239;27896;-76
2023/03/25 07:48:52;;;;;;;3.60;2.00;;;8.40;99.90;;;;;;496664;237;28060;-76
2023/03/25 07:50:53;;;;;;;10.63;2.80;;;8.50;99.90;;;;;;496421;239;28013;-76
2023/03/25 07:52:54;;;;;;;10.70;2.50;;;8.60;99.90;;;;;;496622;239;27982;-76
2023/03/25 07:54:56;;;;;;;7.33;2.37;;;8.60;99.90;;;;;;496624;239;28065;-76
2023/03/25 07:56:57;;;;;;;5.37;1.77;;;8.50;99.90;;;;;;496657;239;27749;-76
2023/03/25 07:58:58;;;;;;;5.70;1.87;;;8.40;99.90;;;;;;496685;239;27941;-77
2023/03/25 08:01:00;;;;;;;4.57;1.67;;;8.50;99.90;;;;;;496692;239;28442;-77
2023/03/25 08:03:01;;;;;;;6.93;1.50;;;8.60;99.90;;;;;;496722;239;28635;-76
2023/03/25 08:05:02;;;;;;;8.23;1.70;;;8.60;99.90;;;;;;496646;239;28777;-76
2023/03/25 08:07:03;;;;;;;5.90;1.60;;;8.60;99.90;;;;;;496673;239;28367;-76
2023/03/25 08:09:05;;;;;;;6.90;1.40;;;8.60;99.90;;;;;;496651;239;28483;-76
2023/03/25 08:11:06;;;;;;;3.70;1.47;;;8.50;99.90;;;;;;496620;239;28302;-76
2023/03/25 08:13:07;;;;;;;5.57;1.87;;;8.40;99.90;;;;;;496680;239;28020;-76
2023/03/25 08:15:08;;;;;;;4.50;1.60;;;8.40;99.90;;;;;;496624;239;28029;-77
2023/03/25 08:17:10;;;;;;;2.13;1.40;;;8.40;99.90;;;;;;496684;239;28073;-76
2023/03/25 08:19:11;;;;;;;2.73;1.33;;;8.50;99.90;;;;;;496713;239;27723;-76
2023/03/25 08:21:12;;;;;;;3.63;1.50;;;8.40;99.90;;;;;;496700;239;27961;-75
2023/03/25 08:23:17;;;;;;;5.97;1.77;;;8.40;99.90;;;;;;496661;239;27825;-76
2023/03/25 08:25:15;;;;;;;7.40;1.93;;;8.40;99.90;;;;;;496298;239;27925;-76
2023/03/25 08:27:16;;;;;;;3.50;1.40;;;8.40;99.90;;;;;;496644;239;28004;-76
2023/03/25 08:29:18;;;;;;;6.90;1.90;;;8.40;99.90;;;;;;496653;239;27822;-76
2023/03/25 08:31:19;;;;;;;9.93;2.00;;;8.40;99.90;;;;;;496547;239;28074;-76
2023/03/25 08:33:20;;;;;;;4.17;1.57;;;8.60;99.90;;;;;;496658;239;27813;-77
2023/03/25 08:35:21;;;;;;;7.13;2.00;;;8.60;99.90;;;;;;496563;239;28118;-76
2023/03/25 08:37:24;;;;;;;6.20;2.10;;;8.60;99.90;;;;;;496638;239;27881;-76
2023/03/25 08:39:28;;;;;;;2.57;1.90;;;8.60;99.90;;;;;;496510;239;27953;-76
2023/03/25 08:41:25;;;;;;;9.10;2.50;;;8.70;99.90;;;;;;496267;239;28423;-76
2023/03/25 08:43:26;;;;;;;6.30;1.90;;;8.90;99.90;;;;;;496648;239;28406;-76
2023/03/25 08:45:27;;;;;;;3.70;1.70;;;9.10;99.90;;;;;;496573;239;28162;-77
2023/03/25 08:47:28;;;;;;;6.23;1.93;;;9.10;99.90;;;;;;496730;239;28590;-77
2023/03/25 08:49:30;;;;;;;2.13;1.60;;;9.20;99.90;;;;;;496632;239;28091;-77
2023/03/25 08:51:31;;;;;;;5.43;1.83;;;9.30;99.90;;;;;;496604;239;28003;-77
2023/03/25 08:53:32;;;;;;;4.37;1.40;;;9.10;99.90;;;;;;496631;239;27784;-76
2023/03/25 08:55:33;;;;;;;6.23;1.57;;;8.90;99.90;;;;;;496541;239;27823;-76
2023/03/25 08:57:35;;;;;;;2.90;1.40;;;8.80;99.90;;;;;;496622;239;27982;-76
2023/03/25 08:59:36;;;;;;;3.43;1.50;;;8.80;99.90;;;;;;496632;239;27784;-76
2023/03/25 09:01:37;;;;;;;4.17;1.73;;;9.00;99.90;;;;;;496627;239;27964;-76
2023/03/25 09:03:39;;;;;;;5.60;1.50;;;9.10;99.90;;;;;;496651;239;27803;-76
2023/03/25 09:05:40;;;;;;;5.07;2.03;;;9.00;99.90;;;;;;496527;239;27998;-76
2023/03/25 09:07:41;;;;;;;6.53;1.60;;;9.00;99.90;;;;;;496649;239;27991;-76
2023/03/25 09:09:42;;;;;;;3.53;1.60;;;8.90;99.90;;;;;;496633;239;27928;-77
2023/03/25 09:11:43;;;;;;;4.00;1.67;;;8.90;99.90;;;;;;496629;239;27993;-77
2023/03/25 09:13:45;;;;;;;3.23;1.47;;;9.00;99.90;;;;;;496633;239;27915;-76
2023/03/25 09:15:46;;;;;;;3.33;1.30;;;9.20;99.90;;;;;;496561;239;28084;-76
2023/03/25 09:17:47;;;;;;;3.60;1.33;;;9.30;99.90;;;;;;496611;239;28389;-76
2023/03/25 09:19:48;;;;;;;3.70;1.70;;;9.20;99.90;;;;;;496605;239;28516;-77
2023/03/25 09:21:50;;;;;;;4.17;1.83;;;9.30;99.90;;;;;;496578;239;28538;-78
2023/03/25 09:23:51;;;;;;;4.30;1.80;;;9.30;99.90;;;;;;496631;239;28528;-77
2023/03/25 09:25:52;;;;;;;4.10;1.73;;;9.40;99.90;;;;;;496596;239;28349;-76
2023/03/25 09:28:04;;;;;;;6.77;1.77;;;;;;;;;;495022;239;38671;-75
2023/03/25 09:30:15;;;;;;;4.50;1.50;;;;;;;;;;496659;239;26482;-77
2023/03/25 09:32:25;;;;;;;3.53;1.50;;;;;;;;;;496605;239;26839;-73
2023/03/25 09:34:37;;;;;;;6.90;1.93;;;;;;;;;;496639;239;26914;-77
2023/03/25 09:36:47;;;;;;;4.70;1.60;;;;;;;;;;496597;239;27550;-75
2023/03/25 09:39:00;;;;;;;4.20;1.70;;;;;;;;;;496634;239;27393;-77
2023/03/25 09:41:14;;;;;;;4.67;1.60;;;;;;;;;;496643;239;26937;-75
2023/03/25 09:43:27;;;;;;;4.33;1.40;;;;;;;;;;496609;239;26960;-74
2023/03/25 09:45:41;;;;;;;5.10;2.10;;;;;;;;;;496540;239;27082;-74
2023/03/25 09:47:54;;;;;;;3.83;1.80;;;;;;;;;;496620;239;26837;-76
2023/03/25 09:50:07;;;;;;;6.20;1.63;;;;;;;;;;496358;239;27672;-77
2023/03/25 09:52:20;;;;;;;4.37;1.43;;;;;;;;;;496325;239;27355;-76
2023/03/25 09:54:33;;;;;;;3.53;1.40;;;;;;;;;;496246;239;26802;-78
2023/03/25 09:56:47;;;;;;;5.63;1.80;;;;;;;;;;496387;239;26985;-78
2023/03/25 09:59:00;;;;;;;5.03;1.50;;;;;;;;;;496655;239;27113;-76
2023/03/25 10:01:13;;;;;;;4.17;1.73;;;;;;;;;;496668;239;27077;-77
2023/03/25 10:03:27;;;;;;;3.23;1.50;;;;;;;;;;496535;239;27185;-75
2023/03/25 10:05:36;;;;;;;4.13;1.30;;;;;;;;;;496548;239;27226;-77
2023/03/25 10:07:50;;;;;;;9.77;1.90;;;;;;;;;;496670;239;27504;-77
2023/03/25 10:10:05;;;;;;;4.53;1.70;;;;;;;;;;496652;239;27829;-77
2023/03/25 10:12:15;;;;;;;3.03;1.40;;;;;;;;;;496599;236;27663;-76
2023/03/25 10:14:16;;;;;;;3.67;1.50;;;9.80;99.90;;;;;;496589;239;27282;-77
2023/03/25 10:16:17;;;;;;;5.70;1.57;;;10.20;99.90;;;;;;496572;239;28300;-77
2023/03/25 10:18:18;;;;;;;5.00;1.73;;;9.80;99.90;;;;;;496615;239;28204;-76
2023/03/25 10:20:20;;;;;;;6.40;1.80;;;10.00;99.90;;;;;;496581;238;28406;-77
2023/03/25 10:22:21;;;;;;;5.50;2.10;;;10.20;99.90;;;;;;496603;239;28342;-76
2023/03/25 10:24:22;;;;;;;5.67;1.40;;;10.20;99.90;;;;;;496549;239;28254;-76
2023/03/25 10:26:23;;;;;;;3.90;1.40;;;10.00;99.90;;;;;;496573;239;28314;-77
2023/03/25 10:28:25;;;;;;;6.57;1.80;;;9.80;99.90;;;;;;496580;239;28789;-77
2023/03/25 10:30:26;;;;;;;7.83;1.90;;;9.70;99.90;;;;;;496592;239;29015;-76
2023/03/25 10:32:27;;;;;;;3.50;1.80;;;9.60;99.90;;;;;;496607;239;28608;-76
2023/03/25 10:34:28;;;;;;;2.87;1.57;;;9.50;99.90;;;;;;496542;239;28582;-76
2023/03/25 10:36:30;;;;;;;4.40;1.37;;;9.30;99.90;;;;;;496618;239;28491;-77
2023/03/25 10:38:31;;;;;;;2.50;1.50;;;8.70;99.90;;;;;;496587;239;28107;-76
2023/03/25 10:40:32;;;;;;;2.17;1.10;;;8.20;99.90;;;;;;496589;239;27836;-77
2023/03/25 10:42:33;;;;;;;3.83;1.20;;;7.80;99.90;;;;;;496601;239;27935;-76
2023/03/25 10:44:35;;;;;;;6.70;1.57;;;7.80;99.90;;;;;;496501;239;28079;-76
2023/03/25 10:46:46;;;;;;;6.93;1.50;;;7.90;99.90;;;;;;496584;239;27880;-76
2023/03/25 10:48:40;;;;;;;2.73;1.40;;;7.90;99.90;;;;;;496024;239;27916;-75